sensor_id;sensor_type;location;lat;lon;timestamp;pressure;altitude;pressure_sealevel;temperature;humidity
57628;BME280;43451;49.060;10.616;2023-04-09T00:01:34;97398.63;;;4.52;100.00
57628;BME280;43451;49.060;10.616;2023-04-09T00:04:00;97401.78;;;4.54;100.00
57628;BME280;43451;49.060;10.616;2023-04-09T00:06:25;97406.16;;;4.59;100.00
57628;BME280;43451;49.060;10.616;2023-04-09T00:08:51;97409.75;;;4.63;100.00
57628;BME280;43451;49.060;10.616;2023-04-09T00:11:16;97403.03;;;5.06;100.00
57628;BME280;43451;49.060;10.616;2023-04-09T00:13:41;97401.41;;;5.29;100.00
57628;BME280;43451;49.060;10.616;2023-04-09T00:16:07;97391.88;;;5.32;100.00
57628;BME280;43451;49.060;10.616;2023-04-09T00:18:32;97389.72;;;5.38;100.00
57628;BME280;43451;49.060;10.616;2023-04-09T00:20:57;97390.78;;;5.21;100.00
57628;BME280;43451;49.060;10.616;2023-04-09T00:23:22;97392.34;;;5.22;100.00
57628;BME280;43451;49.060;10.616;2023-04-09T00:25:48;97393.38;;;5.17;100.00
57628;BME280;43451;49.060;10.616;2023-04-09T00:28:13;97387.91;;;5.01;100.00
57628;BME280;43451;49.060;10.616;2023-04-09T00:30:38;97392.13;;;5.15;100.00
57628;BME280;43451;49.060;10.616;2023-04-09T00:33:04;97396.16;;;5.33;100.00
57628;BME280;43451;49.060;10.616;2023-04-09T00:35:29;97386.00;;;5.42;100.00
57628;BME280;43451;49.060;10.616;2023-04-09T00:37:55;97385.22;;;5.42;100.00
57628;BME280;43451;49.060;10.616;2023-04-09T00:40:20;97386.56;;;5.48;100.00
57628;BME280;43451;49.060;10.616;2023-04-09T00:42:46;97384.34;;;5.38;100.00
57628;BME280;43451;49.060;10.616;2023-04-09T00:45:12;97383.13;;;5.23;100.00
57628;BME280;43451;49.060;10.616;2023-04-09T00:47:37;97386.41;;;5.16;100.00
57628;BME280;43451;49.060;10.616;2023-04-09T00:50:02;97384.38;;;5.25;100.00
57628;BME280;43451;49.060;10.616;2023-04-09T00:52:28;97395.25;;;5.17;100.00
57628;BME280;43451;49.060;10.616;2023-04-09T00:54:58;97391.94;;;5.07;100.00
57628;BME280;43451;49.060;10.616;2023-04-09T00:57:23;97393.03;;;5.06;100.00
57628;BME280;43451;49.060;10.616;2023-04-09T00:59:48;97388.44;;;5.07;100.00
57628;BME280;43451;49.060;10.616;2023-04-09T01:02:14;97387.13;;;4.88;100.00
57628;BME280;43451;49.060;10.616;2023-04-09T01:04:41;97396.09;;;4.80;100.00
57628;BME280;43451;49.060;10.616;2023-04-09T01:07:11;97391.25;;;4.86;100.00
57628;BME280;43451;49.060;10.616;2023-04-09T01:09:41;97388.78;;;4.93;100.00
57628;BME280;43451;49.060;10.616;2023-04-09T01:12:17;97391.03;;;4.79;100.00
57628;BME280;43451;49.060;10.616;2023-04-09T01:14:58;97389.81;;;4.76;100.00
57628;BME280;43451;49.060;10.616;2023-04-09T01:17:32;97383.41;;;5.05;100.00
57628;BME280;43451;49.060;10.616;2023-04-09T01:20:02;97379.81;;;4.89;100.00
57628;BME280;43451;49.060;10.616;2023-04-09T01:27:43;97396.06;;;4.68;100.00
57628;BME280;43451;49.060;10.616;2023-04-09T01:30:11;97395.97;;;4.89;100.00
57628;BME280;43451;49.060;10.616;2023-04-09T01:32:40;97395.94;;;5.13;100.00
57628;BME280;43451;49.060;10.616;2023-04-09T01:35:06;97392.25;;;5.18;100.00
57628;BME280;43451;49.060;10.616;2023-04-09T01:37:32;97390.09;;;5.24;100.00
57628;BME280;43451;49.060;10.616;2023-04-09T01:39:58;97390.53;;;5.26;100.00
57628;BME280;43451;49.060;10.616;2023-04-09T01:42:25;97383.59;;;5.12;100.00
57628;BME280;43451;49.060;10.616;2023-04-09T01:44:51;97391.47;;;5.18;100.00
57628;BME280;43451;49.060;10.616;2023-04-09T01:47:17;97386.75;;;5.15;100.00
57628;BME280;43451;49.060;10.616;2023-04-09T01:49:43;97388.69;;;5.02;100.00
57628;BME280;43451;49.060;10.616;2023-04-09T01:52:09;97393.28;;;5.01;100.00
57628;BME280;43451;49.060;10.616;2023-04-09T01:54:35;97390.88;;;5.24;100.00
57628;BME280;43451;49.060;10.616;2023-04-09T01:57:00;97393.72;;;5.03;100.00
57628;BME280;43451;49.060;10.616;2023-04-09T01:59:26;97386.97;;;5.09;100.00
57628;BME280;43451;49.060;10.616;2023-04-09T02:04:19;97384.84;;;5.03;100.00
57628;BME280;43451;49.060;10.616;2023-04-09T02:07:05;97384.47;;;5.17;100.00
57628;BME280;43451;49.060;10.616;2023-04-09T02:09:33;97385.84;;;5.10;100.00
57628;BME280;43451;49.060;10.616;2023-04-09T02:12:01;97390.22;;;5.03;100.00
57628;BME280;43451;49.060;10.616;2023-04-09T02:14:27;97379.66;;;5.10;100.00
57628;BME280;43451;49.060;10.616;2023-04-09T02:16:54;97387.91;;;5.01;100.00
57628;BME280;43451;49.060;10.616;2023-04-09T02:19:20;97388.00;;;5.05;100.00
57628;BME280;43451;49.060;10.616;2023-04-09T02:21:45;97389.91;;;4.92;100.00
57628;BME280;43451;49.060;10.616;2023-04-09T02:24:11;97386.44;;;4.79;100.00
57628;BME280;43451;49.060;10.616;2023-04-09T02:26:36;97394.63;;;4.71;100.00
57628;BME280;43451;49.060;10.616;2023-04-09T02:29:01;97389.91;;;4.68;100.00
57628;BME280;43451;49.060;10.616;2023-04-09T02:31:27;97390.59;;;4.77;100.00
57628;BME280;43451;49.060;10.616;2023-04-09T02:33:52;97384.63;;;4.96;100.00
57628;BME280;43451;49.060;10.616;2023-04-09T02:36:18;97392.94;;;4.91;100.00
57628;BME280;43451;49.060;10.616;2023-04-09T02:38:43;97395.97;;;4.89;100.00
57628;BME280;43451;49.060;10.616;2023-04-09T02:41:08;97388.78;;;4.69;100.00
57628;BME280;43451;49.060;10.616;2023-04-09T02:43:34;97389.03;;;4.63;100.00
57628;BME280;43451;49.060;10.616;2023-04-09T02:45:59;97391.25;;;4.61;100.00
57628;BME280;43451;49.060;10.616;2023-04-09T02:48:25;97381.63;;;4.73;100.00
57628;BME280;43451;49.060;10.616;2023-04-09T02:50:50;97397.53;;;4.78;100.00
57628;BME280;43451;49.060;10.616;2023-04-09T02:53:15;97387.53;;;4.78;100.00
57628;BME280;43451;49.060;10.616;2023-04-09T02:55:41;97395.31;;;4.92;100.00
57628;BME280;43451;49.060;10.616;2023-04-09T02:58:06;97393.38;;;4.80;100.00
57628;BME280;43451;49.060;10.616;2023-04-09T03:00:31;97387.31;;;4.59;100.00
57628;BME280;43451;49.060;10.616;2023-04-09T03:02:56;97391.91;;;4.46;100.00
57628;BME280;43451;49.060;10.616;2023-04-09T03:05:22;97381.38;;;4.41;100.00
57628;BME280;43451;49.060;10.616;2023-04-09T03:07:47;97389.00;;;4.51;100.00
57628;BME280;43451;49.060;10.616;2023-04-09T03:10:13;97389.44;;;4.53;100.00
57628;BME280;43451;49.060;10.616;2023-04-09T03:12:39;97386.53;;;4.58;100.00
57628;BME280;43451;49.060;10.616;2023-04-09T03:15:04;97392.38;;;4.48;100.00
57628;BME280;43451;49.060;10.616;2023-04-09T03:17:30;97399.09;;;4.42;100.00
57628;BME280;43451;49.060;10.616;2023-04-09T03:19:56;97394.72;;;4.50;100.00
57628;BME280;43451;49.060;10.616;2023-04-09T03:22:21;97390.00;;;4.47;100.00
57628;BME280;43451;49.060;10.616;2023-04-09T03:24:46;97394.81;;;4.53;100.00
57628;BME280;43451;49.060;10.616;2023-04-09T03:27:12;97399.09;;;4.42;100.00
57628;BME280;43451;49.060;10.616;2023-04-09T03:29:37;97389.84;;;4.31;100.00
57628;BME280;43451;49.060;10.616;2023-04-09T03:32:02;97390.41;;;4.24;100.00
57628;BME280;43451;49.060;10.616;2023-04-09T03:34:27;97382.97;;;4.09;100.00
57628;BME280;43451;49.060;10.616;2023-04-09T03:36:53;97390.91;;;4.05;100.00
57628;BME280;43451;49.060;10.616;2023-04-09T03:39:18;97385.09;;;4.03;100.00
57628;BME280;43451;49.060;10.616;2023-04-09T03:41:44;97387.78;;;4.03;100.00
57628;BME280;43451;49.060;10.616;2023-04-09T03:44:09;97389.34;;;4.04;100.00
57628;BME280;43451;49.060;10.616;2023-04-09T03:46:34;97390.81;;;4.02;100.00
57628;BME280;43451;49.060;10.616;2023-04-09T03:49:00;97400.97;;;3.96;100.00
57628;BME280;43451;49.060;10.616;2023-04-09T03:51:25;97393.56;;;3.93;100.00
57628;BME280;43451;49.060;10.616;2023-04-09T03:53:51;97385.25;;;3.86;100.00
57628;BME280;43451;49.060;10.616;2023-04-09T03:56:16;97381.66;;;3.82;100.00
57628;BME280;43451;49.060;10.616;2023-04-09T03:58:41;97384.91;;;3.75;100.00
57628;BME280;43451;49.060;10.616;2023-04-09T04:01:07;97384.66;;;3.68;100.00
57628;BME280;43451;49.060;10.616;2023-04-09T04:03:32;97384.84;;;3.42;100.00
57628;BME280;43451;49.060;10.616;2023-04-09T04:06:01;97378.63;;;3.29;100.00
57628;BME280;43451;49.060;10.616;2023-04-09T04:08:27;97380.63;;;3.74;100.00
57628;BME280;43451;49.060;10.616;2023-04-09T04:10:52;97389.50;;;3.75;100.00
57628;BME280;43451;49.060;10.616;2023-04-09T04:13:18;97386.28;;;3.39;100.00
57628;BME280;43451;49.060;10.616;2023-04-09T04:15:43;97387.19;;;3.01;100.00
57628;BME280;43451;49.060;10.616;2023-04-09T04:18:09;97391.91;;;3.05;100.00
57628;BME280;43451;49.060;10.616;2023-04-09T04:20:35;97386.22;;;2.76;100.00
57628;BME280;43451;49.060;10.616;2023-04-09T04:23:00;97395.72;;;2.65;100.00
57628;BME280;43451;49.060;10.616;2023-04-09T04:25:25;97391.09;;;2.74;100.00
57628;BME280;43451;49.060;10.616;2023-04-09T04:27:51;97401.28;;;2.90;100.00
57628;BME280;43451;49.060;10.616;2023-04-09T04:30:16;97418.47;;;2.59;100.00
57628;BME280;43451;49.060;10.616;2023-04-09T04:32:41;97408.59;;;2.42;100.00
57628;BME280;43451;49.060;10.616;2023-04-09T04:35:07;97425.63;;;2.38;100.00
57628;BME280;43451;49.060;10.616;2023-04-09T04:37:32;97420.91;;;2.82;100.00
57628;BME280;43451;49.060;10.616;2023-04-09T04:39:59;97424.06;;;2.84;100.00
57628;BME280;43451;49.060;10.616;2023-04-09T04:42:25;97428.56;;;2.62;100.00
57628;BME280;43451;49.060;10.616;2023-04-09T04:44:50;97426.41;;;2.47;100.00
57628;BME280;43451;49.060;10.616;2023-04-09T04:47:15;97429.94;;;2.21;100.00
57628;BME280;43451;49.060;10.616;2023-04-09T04:49:41;97426.97;;;2.05;100.00
57628;BME280;43451;49.060;10.616;2023-04-09T04:52:06;97431.41;;;1.93;100.00
57628;BME280;43451;49.060;10.616;2023-04-09T04:54:32;97423.38;;;1.93;100.00
57628;BME280;43451;49.060;10.616;2023-04-09T04:56:57;97433.94;;;1.98;100.00
57628;BME280;43451;49.060;10.616;2023-04-09T04:59:22;97432.66;;;2.04;100.00
57628;BME280;43451;49.060;10.616;2023-04-09T05:01:48;97434.53;;;2.12;100.00
57628;BME280;43451;49.060;10.616;2023-04-09T05:06:41;97439.41;;;2.19;100.00
57628;BME280;43451;49.060;10.616;2023-04-09T05:09:06;97444.03;;;2.01;100.00
57628;BME280;43451;49.060;10.616;2023-04-09T05:11:32;97448.41;;;2.14;100.00
57628;BME280;43451;49.060;10.616;2023-04-09T05:13:57;97442.72;;;2.16;100.00
57628;BME280;43451;49.060;10.616;2023-04-09T05:16:22;97446.66;;;2.18;100.00
57628;BME280;43451;49.060;10.616;2023-04-09T05:18:48;97444.47;;;2.20;100.00
57628;BME280;43451;49.060;10.616;2023-04-09T05:21:13;97442.56;;;2.21;100.00
57628;BME280;43451;49.060;10.616;2023-04-09T05:23:38;97442.97;;;2.40;100.00
57628;BME280;43451;49.060;10.616;2023-04-09T05:26:04;97444.47;;;2.12;100.00
57628;BME280;43451;49.060;10.616;2023-04-09T05:28:29;97442.91;;;2.02;100.00
57628;BME280;43451;49.060;10.616;2023-04-09T05:30:55;97446.69;;;1.92;100.00
57628;BME280;43451;49.060;10.616;2023-04-09T05:33:20;97444.03;;;1.92;100.00
57628;BME280;43451;49.060;10.616;2023-04-09T05:35:45;97451.75;;;1.94;100.00
57628;BME280;43451;49.060;10.616;2023-04-09T05:38:11;97454.22;;;2.25;100.00
57628;BME280;43451;49.060;10.616;2023-04-09T05:40:37;97454.38;;;2.28;100.00
57628;BME280;43451;49.060;10.616;2023-04-09T05:43:03;97454.41;;;2.20;100.00
57628;BME280;43451;49.060;10.616;2023-04-09T05:45:28;97458.50;;;2.17;100.00
57628;BME280;43451;49.060;10.616;2023-04-09T05:47:53;97463.31;;;2.50;100.00
57628;BME280;43451;49.060;10.616;2023-04-09T05:50:19;97455.38;;;2.62;100.00
57628;BME280;43451;49.060;10.616;2023-04-09T05:52:44;97457.53;;;2.77;100.00
57628;BME280;43451;49.060;10.616;2023-04-09T05:55:10;97456.63;;;2.65;100.00
57628;BME280;43451;49.060;10.616;2023-04-09T05:57:35;97465.97;;;2.50;100.00
57628;BME280;43451;49.060;10.616;2023-04-09T06:00:00;97450.22;;;2.48;100.00
57628;BME280;43451;49.060;10.616;2023-04-09T06:02:26;97448.81;;;2.51;100.00
57628;BME280;43451;49.060;10.616;2023-04-09T06:04:51;97451.44;;;2.60;100.00
57628;BME280;43451;49.060;10.616;2023-04-09T06:07:16;97455.03;;;2.72;100.00
57628;BME280;43451;49.060;10.616;2023-04-09T06:09:42;97461.44;;;2.89;100.00
57628;BME280;43451;49.060;10.616;2023-04-09T06:12:11;97458.47;;;2.82;100.00
57628;BME280;43451;49.060;10.616;2023-04-09T06:14:36;97453.56;;;2.84;100.00
57628;BME280;43451;49.060;10.616;2023-04-09T06:17:01;97460.97;;;2.87;100.00
57628;BME280;43451;49.060;10.616;2023-04-09T06:19:27;97457.44;;;2.95;100.00
57628;BME280;43451;49.060;10.616;2023-04-09T06:21:52;97463.13;;;3.02;100.00
57628;BME280;43451;49.060;10.616;2023-04-09T06:24:18;97468.50;;;3.02;100.00
57628;BME280;43451;49.060;10.616;2023-04-09T06:26:43;97464.03;;;3.06;100.00
57628;BME280;43451;49.060;10.616;2023-04-09T06:29:08;97458.81;;;3.10;100.00
57628;BME280;43451;49.060;10.616;2023-04-09T06:31:34;97463.59;;;3.34;100.00
57628;BME280;43451;49.060;10.616;2023-04-09T06:33:59;97464.97;;;3.61;100.00
57628;BME280;43451;49.060;10.616;2023-04-09T06:36:24;97460.19;;;3.66;100.00
57628;BME280;43451;49.060;10.616;2023-04-09T06:38:51;97471.78;;;3.79;100.00
57628;BME280;43451;49.060;10.616;2023-04-09T06:41:19;97467.13;;;3.88;100.00
57628;BME280;43451;49.060;10.616;2023-04-09T06:43:44;97466.66;;;4.07;100.00
57628;BME280;43451;49.060;10.616;2023-04-09T06:46:09;97469.53;;;4.23;100.00
57628;BME280;43451;49.060;10.616;2023-04-09T06:48:35;97465.34;;;4.13;100.00
57628;BME280;43451;49.060;10.616;2023-04-09T06:51:00;97468.31;;;4.33;100.00
57628;BME280;43451;49.060;10.616;2023-04-09T06:53:25;97469.69;;;4.39;100.00
57628;BME280;43451;49.060;10.616;2023-04-09T06:55:51;97468.97;;;4.30;100.00
57628;BME280;43451;49.060;10.616;2023-04-09T06:58:16;97471.06;;;4.45;100.00
57628;BME280;43451;49.060;10.616;2023-04-09T07:00:41;97469.50;;;4.69;100.00
57628;BME280;43451;49.060;10.616;2023-04-09T07:03:07;97466.03;;;4.68;100.00
57628;BME280;43451;49.060;10.616;2023-04-09T07:05:33;97469.22;;;4.95;100.00
57628;BME280;43451;49.060;10.616;2023-04-09T07:07:58;97468.22;;;5.24;100.00
57628;BME280;43451;49.060;10.616;2023-04-09T07:10:23;97463.38;;;5.29;100.00
57628;BME280;43451;49.060;10.616;2023-04-09T07:12:49;97465.28;;;5.29;100.00
57628;BME280;43451;49.060;10.616;2023-04-09T07:15:14;97467.88;;;5.38;100.00
57628;BME280;43451;49.060;10.616;2023-04-09T07:17:39;97465.38;;;5.45;100.00
57628;BME280;43451;49.060;10.616;2023-04-09T07:20:05;97465.94;;;5.50;100.00
57628;BME280;43451;49.060;10.616;2023-04-09T07:22:30;97462.19;;;5.67;100.00
57628;BME280;43451;49.060;10.616;2023-04-09T07:24:56;97470.84;;;5.61;100.00
57628;BME280;43451;49.060;10.616;2023-04-09T07:27:22;97478.38;;;5.67;100.00
57628;BME280;43451;49.060;10.616;2023-04-09T07:29:48;97471.19;;;5.71;100.00
57628;BME280;43451;49.060;10.616;2023-04-09T07:32:13;97474.41;;;5.77;100.00
57628;BME280;43451;49.060;10.616;2023-04-09T07:34:40;97480.91;;;5.88;100.00
57628;BME280;43451;49.060;10.616;2023-04-09T07:37:05;97478.66;;;5.90;100.00
57628;BME280;43451;49.060;10.616;2023-04-09T07:39:30;97475.50;;;6.00;100.00
57628;BME280;43451;49.060;10.616;2023-04-09T07:41:56;97472.00;;;6.12;100.00
57628;BME280;43451;49.060;10.616;2023-04-09T07:44:21;97481.09;;;6.36;100.00
57628;BME280;43451;49.060;10.616;2023-04-09T07:46:47;97482.88;;;6.44;100.00
57628;BME280;43451;49.060;10.616;2023-04-09T07:49:12;97477.59;;;6.63;100.00
57628;BME280;43451;49.060;10.616;2023-04-09T07:51:38;97478.09;;;6.69;100.00
57628;BME280;43451;49.060;10.616;2023-04-09T07:54:03;97467.75;;;6.71;100.00
57628;BME280;43451;49.060;10.616;2023-04-09T07:56:29;97473.94;;;6.87;100.00
57628;BME280;43451;49.060;10.616;2023-04-09T07:58:54;97475.41;;;7.01;100.00
57628;BME280;43451;49.060;10.616;2023-04-09T08:01:19;97469.75;;;7.06;100.00
57628;BME280;43451;49.060;10.616;2023-04-09T08:03:48;97464.97;;;7.15;100.00
57628;BME280;43451;49.060;10.616;2023-04-09T08:06:13;97473.22;;;7.22;100.00
57628;BME280;43451;49.060;10.616;2023-04-09T08:08:39;97467.06;;;7.21;100.00
57628;BME280;43451;49.060;10.616;2023-04-09T08:11:04;97471.06;;;7.28;100.00
57628;BME280;43451;49.060;10.616;2023-04-09T08:13:30;97469.56;;;7.30;100.00
57628;BME280;43451;49.060;10.616;2023-04-09T08:15:56;97473.88;;;7.51;100.00
57628;BME280;43451;49.060;10.616;2023-04-09T08:18:24;97468.25;;;7.40;100.00
57628;BME280;43451;49.060;10.616;2023-04-09T08:20:49;97475.81;;;7.50;100.00
57628;BME280;43451;49.060;10.616;2023-04-09T08:23:15;97466.59;;;7.35;100.00
57628;BME280;43451;49.060;10.616;2023-04-09T08:25:40;97470.28;;;7.27;100.00
57628;BME280;43451;49.060;10.616;2023-04-09T08:28:05;97467.28;;;7.32;100.00
57628;BME280;43451;49.060;10.616;2023-04-09T08:30:31;97460.56;;;7.77;100.00
57628;BME280;43451;49.060;10.616;2023-04-09T08:32:58;97470.63;;;7.61;100.00
57628;BME280;43451;49.060;10.616;2023-04-09T08:35:23;97467.53;;;7.43;100.00
57628;BME280;43451;49.060;10.616;2023-04-09T08:37:49;97465.09;;;7.38;100.00
57628;BME280;43451;49.060;10.616;2023-04-09T08:40:14;97466.50;;;7.67;100.00
57628;BME280;43451;49.060;10.616;2023-04-09T08:42:43;97467.69;;;7.85;100.00
57628;BME280;43451;49.060;10.616;2023-04-09T08:45:11;97463.44;;;8.04;95.39
57628;BME280;43451;49.060;10.616;2023-04-09T08:47:37;97465.63;;;7.98;94.70
57628;BME280;43451;49.060;10.616;2023-04-09T08:50:04;97469.69;;;8.08;94.44
57628;BME280;43451;49.060;10.616;2023-04-09T08:52:30;97470.13;;;8.10;95.65
57628;BME280;43451;49.060;10.616;2023-04-09T08:54:56;97473.53;;;8.07;93.65
57628;BME280;43451;49.060;10.616;2023-04-09T08:57:21;97467.84;;;8.12;93.61
57628;BME280;43451;49.060;10.616;2023-04-09T08:59:47;97471.13;;;8.41;93.48
57628;BME280;43451;49.060;10.616;2023-04-09T09:02:12;97469.53;;;8.59;93.85
57628;BME280;43451;49.060;10.616;2023-04-09T09:07:10;97477.97;;;9.00;89.99
57628;BME280;43451;49.060;10.616;2023-04-09T09:09:48;97466.84;;;9.05;84.15
57628;BME280;43451;49.060;10.616;2023-04-09T09:12:28;97481.47;;;9.00;83.51
57628;BME280;43451;49.060;10.616;2023-04-09T09:14:56;97492.00;;;9.05;81.78
57628;BME280;43451;49.060;10.616;2023-04-09T09:17:21;97475.06;;;9.12;79.91
57628;BME280;43451;49.060;10.616;2023-04-09T09:19:47;97468.16;;;9.15;75.07
57628;BME280;43451;49.060;10.616;2023-04-09T09:22:12;97484.31;;;9.34;78.05
57628;BME280;43451;49.060;10.616;2023-04-09T09:24:45;97476.03;;;9.50;81.81
57628;BME280;43451;49.060;10.616;2023-04-09T09:27:13;97481.63;;;9.61;79.35
57628;BME280;43451;49.060;10.616;2023-04-09T09:29:54;97473.06;;;9.59;77.56
57628;BME280;43451;49.060;10.616;2023-04-09T09:32:20;97479.03;;;9.68;77.59
57628;BME280;43451;49.060;10.616;2023-04-09T09:34:56;97468.22;;;9.71;76.51
57628;BME280;43451;49.060;10.616;2023-04-09T09:37:25;97474.97;;;9.85;77.16
57628;BME280;43451;49.060;10.616;2023-04-09T09:39:51;97469.25;;;9.90;79.23
57628;BME280;43451;49.060;10.616;2023-04-09T09:42:16;97470.78;;;9.91;79.66
57628;BME280;43451;49.060;10.616;2023-04-09T09:44:41;97476.31;;;9.98;80.89
57628;BME280;43451;49.060;10.616;2023-04-09T09:47:07;97475.28;;;9.80;70.80
57628;BME280;43451;49.060;10.616;2023-04-09T09:49:32;97475.44;;;9.90;76.04
57628;BME280;43451;49.060;10.616;2023-04-09T09:51:58;97479.06;;;10.02;77.01
57628;BME280;43451;49.060;10.616;2023-04-09T09:54:24;97478.78;;;10.10;75.37
57628;BME280;43451;49.060;10.616;2023-04-09T09:56:50;97474.81;;;10.31;79.14
57628;BME280;43451;49.060;10.616;2023-04-09T09:59:20;97476.81;;;10.37;77.59
57628;BME280;43451;49.060;10.616;2023-04-09T10:01:58;97477.69;;;10.15;70.06
57628;BME280;43451;49.060;10.616;2023-04-09T10:04:25;97469.47;;;10.11;71.06
57628;BME280;43451;49.060;10.616;2023-04-09T10:06:52;97469.06;;;10.06;72.82
57628;BME280;43451;49.060;10.616;2023-04-09T10:09:18;97468.63;;;10.04;75.28
57628;BME280;43451;49.060;10.616;2023-04-09T10:11:46;97467.63;;;10.15;75.95
57628;BME280;43451;49.060;10.616;2023-04-09T10:14:12;97468.59;;;10.34;74.53
57628;BME280;43451;49.060;10.616;2023-04-09T10:16:38;97460.06;;;10.32;74.48
57628;BME280;43451;49.060;10.616;2023-04-09T10:19:04;97464.22;;;10.26;70.68
57628;BME280;43451;49.060;10.616;2023-04-09T10:24:11;97466.16;;;10.59;66.28
57628;BME280;43451;49.060;10.616;2023-04-09T10:26:40;97458.44;;;10.61;64.64
57628;BME280;43451;49.060;10.616;2023-04-09T10:29:09;97450.69;;;10.63;66.33
57628;BME280;43451;49.060;10.616;2023-04-09T10:31:45;97453.25;;;10.89;61.42
57628;BME280;43451;49.060;10.616;2023-04-09T10:34:13;97456.44;;;10.99;64.96
57628;BME280;43451;49.060;10.616;2023-04-09T10:36:41;97452.34;;;10.75;66.96
57628;BME280;43451;49.060;10.616;2023-04-09T10:39:11;97449.22;;;10.73;62.40
57628;BME280;43451;49.060;10.616;2023-04-09T10:41:37;97448.72;;;10.60;71.70
57628;BME280;43451;49.060;10.616;2023-04-09T10:44:25;97453.22;;;10.45;64.72
57628;BME280;43451;49.060;10.616;2023-04-09T10:46:52;97442.34;;;10.45;63.52
57628;BME280;43451;49.060;10.616;2023-04-09T10:49:18;97448.03;;;10.33;62.96
57628;BME280;43451;49.060;10.616;2023-04-09T10:51:51;97446.06;;;10.30;62.89
57628;BME280;43451;49.060;10.616;2023-04-09T10:59:38;97445.47;;;10.13;63.60
57628;BME280;43451;49.060;10.616;2023-04-09T11:02:06;97453.69;;;10.20;67.86
57628;BME280;43451;49.060;10.616;2023-04-09T11:07:00;97450.06;;;10.39;63.53
57628;BME280;43451;49.060;10.616;2023-04-09T11:09:27;97447.66;;;10.31;61.52
57628;BME280;43451;49.060;10.616;2023-04-09T11:11:53;97448.91;;;10.40;63.50
57628;BME280;43451;49.060;10.616;2023-04-09T11:14:18;97446.63;;;10.46;67.21
57628;BME280;43451;49.060;10.616;2023-04-09T11:16:46;97449.53;;;10.64;66.84
57628;BME280;43451;49.060;10.616;2023-04-09T11:19:11;97447.75;;;10.82;59.85
57628;BME280;43451;49.060;10.616;2023-04-09T11:21:37;97447.06;;;10.92;62.94
57628;BME280;43451;49.060;10.616;2023-04-09T11:24:10;97446.03;;;11.08;66.17
57628;BME280;43451;49.060;10.616;2023-04-09T11:26:36;97446.97;;;11.26;59.75
57628;BME280;43451;49.060;10.616;2023-04-09T11:29:07;97438.44;;;11.35;61.37
57628;BME280;43451;49.060;10.616;2023-04-09T11:31:33;97447.81;;;11.41;58.72
57628;BME280;43451;49.060;10.616;2023-04-09T11:33:58;97439.63;;;11.34;58.56
57628;BME280;43451;49.060;10.616;2023-04-09T11:36:24;97445.00;;;11.23;59.26
57628;BME280;43451;49.060;10.616;2023-04-09T11:38:51;97439.19;;;11.28;59.88
57628;BME280;43451;49.060;10.616;2023-04-09T11:41:31;97445.25;;;11.62;57.45
57628;BME280;43451;49.060;10.616;2023-04-09T11:43:56;97446.25;;;12.02;59.93
57628;BME280;43451;49.060;10.616;2023-04-09T11:46:21;97437.34;;;12.09;58.39
57628;BME280;43451;49.060;10.616;2023-04-09T11:48:50;97436.25;;;12.46;54.62
57628;BME280;43451;49.060;10.616;2023-04-09T11:51:15;97436.59;;;12.19;56.68
57628;BME280;43451;49.060;10.616;2023-04-09T11:53:40;97441.19;;;12.04;56.77
57628;BME280;43451;49.060;10.616;2023-04-09T11:56:06;97441.25;;;12.15;54.95
57628;BME280;43451;49.060;10.616;2023-04-09T11:58:31;97446.72;;;12.26;56.77
57628;BME280;43451;49.060;10.616;2023-04-09T12:00:57;97445.25;;;12.50;53.00
57628;BME280;43451;49.060;10.616;2023-04-09T12:03:32;97440.94;;;12.52;53.58
57628;BME280;43451;49.060;10.616;2023-04-09T12:06:01;97438.97;;;12.46;54.17
57628;BME280;43451;49.060;10.616;2023-04-09T12:08:27;97437.75;;;12.15;54.08
57628;BME280;43451;49.060;10.616;2023-04-09T12:10:52;97440.06;;;12.13;54.01
57628;BME280;43451;49.060;10.616;2023-04-09T12:13:18;97441.16;;;11.94;55.12
57628;BME280;43451;49.060;10.616;2023-04-09T12:15:44;97445.78;;;11.86;55.92
57628;BME280;43451;49.060;10.616;2023-04-09T12:18:12;97444.78;;;11.53;53.59
57628;BME280;43451;49.060;10.616;2023-04-09T12:20:38;97436.66;;;11.57;54.53
57628;BME280;43451;49.060;10.616;2023-04-09T12:23:05;97446.09;;;11.74;54.48
57628;BME280;43451;49.060;10.616;2023-04-09T12:25:35;97441.19;;;12.04;54.31
57628;BME280;43451;49.060;10.616;2023-04-09T12:28:01;97433.41;;;12.03;51.54
57628;BME280;43451;49.060;10.616;2023-04-09T12:30:27;97426.03;;;12.07;51.64
57628;BME280;43451;49.060;10.616;2023-04-09T12:32:52;97434.66;;;12.27;52.71
57628;BME280;43451;49.060;10.616;2023-04-09T12:35:18;97429.25;;;12.41;51.38
57628;BME280;43451;49.060;10.616;2023-04-09T12:37:43;97432.75;;;12.38;49.68
57628;BME280;43451;49.060;10.616;2023-04-09T12:40:09;97426.47;;;12.27;50.31
57628;BME280;43451;49.060;10.616;2023-04-09T12:42:37;97424.16;;;12.29;51.60
57628;BME280;43451;49.060;10.616;2023-04-09T12:45:03;97423.75;;;12.27;50.44
57628;BME280;43451;49.060;10.616;2023-04-09T12:47:28;97420.25;;;12.23;50.86
57628;BME280;43451;49.060;10.616;2023-04-09T12:49:54;97421.84;;;12.27;51.68
57628;BME280;43451;49.060;10.616;2023-04-09T12:52:19;97423.41;;;12.39;53.22
57628;BME280;43451;49.060;10.616;2023-04-09T12:54:46;97422.66;;;12.53;53.10
57628;BME280;43451;49.060;10.616;2023-04-09T12:57:11;97412.56;;;12.96;51.33
57628;BME280;43451;49.060;10.616;2023-04-09T12:59:37;97409.44;;;13.01;50.81
57628;BME280;43451;49.060;10.616;2023-04-09T13:02:02;97403.25;;;13.26;52.49
57628;BME280;43451;49.060;10.616;2023-04-09T13:04:27;97407.91;;;13.36;49.40
57628;BME280;43451;49.060;10.616;2023-04-09T13:06:53;97406.72;;;13.23;50.36
57628;BME280;43451;49.060;10.616;2023-04-09T13:09:18;97417.25;;;12.99;50.31